createdAt,value
2022-10-04T00:01:06.878Z,24.84
2022-10-04T00:03:38.619Z,24.82
2022-10-04T00:06:12.908Z,24.80
2022-10-04T00:08:44.600Z,24.78
2022-10-04T00:11:19.576Z,24.77
2022-10-04T00:13:50.842Z,24.81
2022-10-04T00:16:27.140Z,24.86
2022-10-04T00:19:21.721Z,24.85
2022-10-04T00:22:12.622Z,24.87
2022-10-04T00:25:15.898Z,24.85
2022-10-04T00:28:25.055Z,24.82
2022-10-04T00:31:17.495Z,24.86
2022-10-04T00:33:47.878Z,24.85
2022-10-04T00:36:54.701Z,24.79
2022-10-04T00:39:41.411Z,24.80
2022-10-04T00:42:43.521Z,24.82
2022-10-04T00:45:25.311Z,24.78
2022-10-04T00:48:31.590Z,24.77
2022-10-04T00:51:06.464Z,24.75
2022-10-04T00:53:53.194Z,24.75
2022-10-04T00:56:26.065Z,24.73
2022-10-04T00:59:24.865Z,24.84
2022-10-04T01:01:57.520Z,24.81
2022-10-04T01:04:33.358Z,24.84
2022-10-04T01:07:05.416Z,24.82
2022-10-04T01:09:36.917Z,24.75
2022-10-04T01:12:09.980Z,24.83
2022-10-04T01:14:47.405Z,24.85
2022-10-04T01:17:14.787Z,24.79
2022-10-04T01:19:52.720Z,24.76
2022-10-04T01:22:42.866Z,24.79
2022-10-04T01:25:10.280Z,24.85
2022-10-04T01:27:42.780Z,24.90
2022-10-04T01:30:13.156Z,24.80
2022-10-04T01:32:41.030Z,24.76
2022-10-04T01:35:11.666Z,24.80
2022-10-04T01:37:40.659Z,24.76
2022-10-04T01:40:09.943Z,24.77
2022-10-04T01:42:42.542Z,24.76
2022-10-04T01:45:15.917Z,24.75
2022-10-04T01:47:48.996Z,24.71
2022-10-04T01:50:20.906Z,24.69
2022-10-04T01:52:53.636Z,24.69
2022-10-04T01:55:25.900Z,24.75
2022-10-04T01:57:57.849Z,24.76
2022-10-04T02:00:25.559Z,24.69
2022-10-04T02:02:56.750Z,24.67
2022-10-04T02:05:31.166Z,24.70
2022-10-04T02:08:04.335Z,24.69
2022-10-04T02:10:34.658Z,24.66
2022-10-04T02:13:02.878Z,24.69
2022-10-04T02:15:31.173Z,24.69
2022-10-04T02:17:59.699Z,24.69
2022-10-04T02:20:27.640Z,24.62
2022-10-04T02:22:58.311Z,24.70
2022-10-04T02:25:27.431Z,24.64
2022-10-04T02:27:55.395Z,24.62
2022-10-04T02:30:23.944Z,24.60
2022-10-04T02:32:54.757Z,24.62
2022-10-04T02:35:23.111Z,24.60
2022-10-04T02:37:58.915Z,24.67
2022-10-04T02:40:31.259Z,24.64
2022-10-04T02:43:03.442Z,24.71
2022-10-04T02:45:42.143Z,24.67
2022-10-04T02:48:25.719Z,24.66
2022-10-04T02:50:55.743Z,24.70
2022-10-04T02:53:30.006Z,24.70
2022-10-04T02:55:59.593Z,24.68
2022-10-04T02:58:27.663Z,24.65
2022-10-04T03:00:58.419Z,24.71
2022-10-04T03:03:29.090Z,24.66
2022-10-04T03:06:04.383Z,24.65
2022-10-04T03:08:35.179Z,24.71
2022-10-04T03:11:05.469Z,24.23
2022-10-04T03:13:33.762Z,24.50
2022-10-04T03:16:01.719Z,24.56
2022-10-04T03:18:30.066Z,24.59
2022-10-04T03:20:58.206Z,24.58
2022-10-04T03:23:25.988Z,24.65
2022-10-04T03:26:00.270Z,24.61
2022-10-04T03:28:30.170Z,24.62
2022-10-04T03:30:58.223Z,24.60
2022-10-04T03:33:27.118Z,24.67
2022-10-04T03:35:56.594Z,24.86
2022-10-04T03:38:25.131Z,24.91
2022-10-04T03:40:56.581Z,24.80
2022-10-04T03:43:26.704Z,24.71
2022-10-04T03:45:56.462Z,24.76
2022-10-04T03:48:30.569Z,24.87
2022-10-04T03:50:59.197Z,24.85
2022-10-04T03:53:31.450Z,24.99
2022-10-04T03:56:04.270Z,24.87
2022-10-04T03:58:32.413Z,24.90
2022-10-04T04:01:12.865Z,24.87
2022-10-04T04:03:51.438Z,24.97
2022-10-04T04:06:20.691Z,24.93
2022-10-04T04:08:52.322Z,24.69
2022-10-04T04:11:24.833Z,24.55
2022-10-04T04:13:59.949Z,24.52
2022-10-04T04:16:29.179Z,24.50
2022-10-04T04:19:01.684Z,24.25
2022-10-04T04:21:30.574Z,24.27
2022-10-04T04:24:02.161Z,24.41
2022-10-04T04:26:36.742Z,24.46
2022-10-04T04:29:11.302Z,24.39
2022-10-04T04:31:44.416Z,24.31
2022-10-04T04:34:19.094Z,24.33
2022-10-04T04:36:46.908Z,24.23
2022-10-04T04:39:17.512Z,24.38
2022-10-04T04:41:50.213Z,24.01
2022-10-04T04:44:19.067Z,24.03
2022-10-04T04:46:48.878Z,24.16
2022-10-04T04:49:18.382Z,23.73
2022-10-04T04:51:49.497Z,24.14
2022-10-04T04:54:19.739Z,24.28
2022-10-04T04:56:51.122Z,23.88
2022-10-04T04:59:21.033Z,23.52
2022-10-04T05:01:50.261Z,23.92
2022-10-04T05:04:21.791Z,24.21
2022-10-04T05:06:59.815Z,24.14
2022-10-04T05:09:31.296Z,23.70
2022-10-04T05:12:05.467Z,23.82
2022-10-04T05:14:33.034Z,23.86
2022-10-04T05:17:06.960Z,23.89
2022-10-04T05:19:37.635Z,24.09
2022-10-04T05:22:10.469Z,24.20
2022-10-04T05:24:41.566Z,24.20
2022-10-04T05:27:15.991Z,24.17
2022-10-04T05:29:56.652Z,24.27
2022-10-04T05:32:36.792Z,24.09
2022-10-04T05:35:15.930Z,24.21
2022-10-04T05:38:05.923Z,24.16
2022-10-04T05:40:44.012Z,24.35
2022-10-04T05:43:32.572Z,24.25
2022-10-04T05:46:25.151Z,23.92
2022-10-04T05:49:02.609Z,24.10
2022-10-04T05:51:33.630Z,24.40
2022-10-04T05:54:03.083Z,24.34
2022-10-04T05:56:51.881Z,24.08
2022-10-04T05:59:35.588Z,24.19
2022-10-04T06:02:16.470Z,24.20
2022-10-04T06:04:59.038Z,24.28
2022-10-04T06:07:34.862Z,24.39
2022-10-04T06:10:29.289Z,24.36
2022-10-04T06:13:04.478Z,24.43
2022-10-04T06:15:59.438Z,24.33
2022-10-04T06:18:53.441Z,24.56
2022-10-04T06:21:25.730Z,24.44
2022-10-04T06:24:01.576Z,24.34
2022-10-04T06:26:35.495Z,24.26
2022-10-04T06:29:08.926Z,24.37
2022-10-04T06:32:24.406Z,24.50
2022-10-04T06:35:27.335Z,24.55
2022-10-04T06:38:33.914Z,24.46
2022-10-04T06:41:21.404Z,24.43
2022-10-04T06:44:01.230Z,24.48
2022-10-04T06:46:35.621Z,24.34
2022-10-04T06:49:26.734Z,24.17
2022-10-04T06:52:25.917Z,24.02
2022-10-04T06:55:07.373Z,24.21
2022-10-04T06:57:59.667Z,24.38
2022-10-04T07:00:29.551Z,24.49
2022-10-04T07:03:02.782Z,24.61
2022-10-04T07:05:35.959Z,24.60
2022-10-04T07:08:12.526Z,24.58
2022-10-04T07:10:51.408Z,24.57
2022-10-04T07:13:39.803Z,24.65
2022-10-04T07:16:18.016Z,24.74
2022-10-04T07:18:56.479Z,24.63
2022-10-04T07:21:28.030Z,24.75
2022-10-04T07:23:59.869Z,24.66
2022-10-04T07:26:34.358Z,24.81
2022-10-04T07:29:12.402Z,24.65
2022-10-04T07:31:41.947Z,24.79
2022-10-04T07:34:14.774Z,24.90
2022-10-04T07:36:46.794Z,24.84
2022-10-04T07:39:17.268Z,24.74
2022-10-04T07:41:52.144Z,24.76
2022-10-04T07:44:28.717Z,24.92
2022-10-04T07:47:00.848Z,24.90
2022-10-04T07:49:28.666Z,24.78
2022-10-04T07:52:05.672Z,25.04
2022-10-04T07:54:39.054Z,24.90
2022-10-04T07:57:19.001Z,25.02
2022-10-04T07:59:54.309Z,25.00
2022-10-04T08:02:32.217Z,24.98
2022-10-04T08:05:12.455Z,25.04
2022-10-04T08:07:53.688Z,25.27
2022-10-04T08:10:27.835Z,25.16
2022-10-04T08:13:04.244Z,25.08
2022-10-04T08:15:37.372Z,25.12
2022-10-04T08:18:38.859Z,25.13
2022-10-04T08:21:09.149Z,25.16
2022-10-04T08:23:48.897Z,25.10
2022-10-04T08:26:29.944Z,25.20
2022-10-04T08:29:19.297Z,25.10
2022-10-04T08:31:50.673Z,25.31
2022-10-04T08:34:33.448Z,25.17
2022-10-04T08:37:13.195Z,24.90
2022-10-04T08:39:55.187Z,25.33
2022-10-04T08:42:59.521Z,25.14
2022-10-04T08:46:17.717Z,25.14
2022-10-04T08:49:15.438Z,25.21
2022-10-04T08:52:23.041Z,25.21
2022-10-04T08:55:19.346Z,25.46
2022-10-04T08:58:25.974Z,25.27
2022-10-04T09:01:11.209Z,25.21
2022-10-04T09:04:31.363Z,25.22
2022-10-04T09:07:16.969Z,25.16
2022-10-04T09:10:02.791Z,25.28
2022-10-04T09:12:47.363Z,25.61
2022-10-04T09:15:24.259Z,25.33
2022-10-04T09:18:01.617Z,25.26
2022-10-04T09:20:44.820Z,25.26
2022-10-04T09:23:44.433Z,25.33
2022-10-04T09:26:19.931Z,25.33
2022-10-04T09:29:20.788Z,25.32
2022-10-04T09:32:30.639Z,25.29
2022-10-04T09:35:25.725Z,25.27
2022-10-04T09:38:23.242Z,25.27
2022-10-04T09:41:08.874Z,25.49
2022-10-04T09:44:02.961Z,25.22
2022-10-04T09:46:56.740Z,25.52
2022-10-04T09:49:47.371Z,25.48
2022-10-04T09:52:30.127Z,25.53
2022-10-04T09:55:22.401Z,25.59
2022-10-04T09:58:19.595Z,25.79
2022-10-04T10:00:52.760Z,25.50
2022-10-04T10:03:56.064Z,25.47
2022-10-04T10:06:46.393Z,25.42
2022-10-04T10:09:32.328Z,25.47
2022-10-04T10:12:20.255Z,25.66
2022-10-04T10:15:16.007Z,25.93
2022-10-04T10:17:50.891Z,25.67
2022-10-04T10:21:02.427Z,25.46
2022-10-04T10:23:53.949Z,25.58
2022-10-04T10:26:57.362Z,25.46
2022-10-04T10:29:48.764Z,25.93
2022-10-04T10:32:41.617Z,25.84
2022-10-04T10:35:37.998Z,25.74
2022-10-04T10:38:33.931Z,25.72
2022-10-04T10:41:24.661Z,25.65
2022-10-04T10:44:27.314Z,25.54
2022-10-04T10:47:07.463Z,25.82
2022-10-04T10:49:54.569Z,25.71
2022-10-04T10:52:57.431Z,25.59
2022-10-04T10:55:32.321Z,25.49
2022-10-04T10:58:32.571Z,25.57
2022-10-04T11:01:20.920Z,25.49
2022-10-04T11:04:23.560Z,25.76
2022-10-04T11:07:23.432Z,25.38
2022-10-04T11:10:41.059Z,25.92
2022-10-04T11:13:48.694Z,26.09
2022-10-04T11:16:47.649Z,25.71
2022-10-04T11:19:54.994Z,25.86
2022-10-04T11:23:04.090Z,25.73
2022-10-04T11:26:17.204Z,25.86
2022-10-04T11:28:52.676Z,25.71
2022-10-04T11:31:55.547Z,25.86
2022-10-04T11:34:51.209Z,25.89
2022-10-04T11:37:33.348Z,25.98
2022-10-04T11:40:19.251Z,26.02
2022-10-04T11:43:10.511Z,25.93
2022-10-04T11:46:05.303Z,25.90
2022-10-04T11:48:50.478Z,25.86
2022-10-04T11:51:45.372Z,25.73
2022-10-04T11:54:45.960Z,25.69
2022-10-04T11:57:31.304Z,25.67
2022-10-04T12:00:10.152Z,25.73
2022-10-04T12:03:24.325Z,25.92
2022-10-04T12:06:20.917Z,26.24
2022-10-04T12:09:03.310Z,26.15
2022-10-04T12:11:55.904Z,26.18
2022-10-04T12:14:37.676Z,26.39
2022-10-04T12:17:53.388Z,26.22
2022-10-04T12:20:43.435Z,25.94
2022-10-04T12:24:10.709Z,26.28
2022-10-04T12:27:11.959Z,26.00
2022-10-04T12:30:02.830Z,26.28
2022-10-04T12:32:37.588Z,26.18
2022-10-04T12:35:20.957Z,25.94
2022-10-04T12:38:21.240Z,25.82
2022-10-04T12:41:00.189Z,25.90
2022-10-04T12:43:39.866Z,25.76
2022-10-04T12:46:15.622Z,25.75
2022-10-04T12:48:50.539Z,25.76
2022-10-04T12:51:35.056Z,25.67
2022-10-04T12:54:18.820Z,25.72
2022-10-04T12:56:53.970Z,25.75
2022-10-04T12:59:41.346Z,25.77
2022-10-04T13:02:28.674Z,25.74
2022-10-04T13:05:03.076Z,25.71
2022-10-04T13:07:49.555Z,25.74
2022-10-04T13:10:33.153Z,25.75
2022-10-04T13:13:21.751Z,25.71
2022-10-04T13:18:54.170Z,25.62
2022-10-04T13:21:45.083Z,25.62
2022-10-04T13:24:22.242Z,25.68
2022-10-04T13:26:56.873Z,25.72
2022-10-04T13:29:29.464Z,25.69
2022-10-04T13:32:04.022Z,25.67
2022-10-04T13:34:39.467Z,25.74
2022-10-04T13:37:25.011Z,25.68
2022-10-04T13:40:17.129Z,25.75
2022-10-04T13:43:13.504Z,25.80
2022-10-04T13:45:52.393Z,25.76
2022-10-04T13:48:34.479Z,25.78
2022-10-04T13:51:40.053Z,25.82
2022-10-04T13:54:22.474Z,25.82
2022-10-04T13:57:13.677Z,25.80
2022-10-04T13:59:45.208Z,25.82
2022-10-04T14:02:42.865Z,25.90
2022-10-04T14:05:35.789Z,25.84
2022-10-04T14:08:21.279Z,25.84
2022-10-04T14:11:16.970Z,25.93
2022-10-04T14:14:16.185Z,25.87
2022-10-04T14:17:14.322Z,25.84
2022-10-04T14:20:25.165Z,25.90
2022-10-04T14:23:21.899Z,25.85
2022-10-04T14:26:12.689Z,25.85
2022-10-04T14:29:08.609Z,25.90
2022-10-04T14:32:06.912Z,25.86
2022-10-04T14:34:56.639Z,25.87
2022-10-04T14:37:57.626Z,25.83
2022-10-04T14:40:56.199Z,25.83
2022-10-04T14:43:52.196Z,25.86
2022-10-04T14:46:29.259Z,25.83
2022-10-04T14:49:13.264Z,25.84
2022-10-04T14:52:16.151Z,25.81
2022-10-04T14:54:52.439Z,25.85
2022-10-04T14:57:43.985Z,25.81
2022-10-04T15:00:19.831Z,25.87
2022-10-04T15:03:08.195Z,25.84
2022-10-04T15:05:54.898Z,25.83
2022-10-04T15:08:52.715Z,25.90
2022-10-04T15:11:37.593Z,25.86
2022-10-04T15:14:26.005Z,25.79
2022-10-04T15:16:56.224Z,25.87
2022-10-04T15:19:30.148Z,25.85
2022-10-04T15:22:06.931Z,25.81
2022-10-04T15:24:46.745Z,25.73
2022-10-04T15:27:44.945Z,25.68
2022-10-04T15:30:26.489Z,25.68
2022-10-04T15:33:22.187Z,25.69
2022-10-04T15:36:10.987Z,25.67
2022-10-04T15:38:49.405Z,25.71
2022-10-04T15:41:25.114Z,25.69
2022-10-04T15:44:27.753Z,25.62
2022-10-04T15:47:11.464Z,25.64
2022-10-04T15:49:54.901Z,25.65
2022-10-04T15:52:50.424Z,25.73
2022-10-04T15:55:26.703Z,25.71
2022-10-04T15:58:17.807Z,25.69
2022-10-04T16:00:56.650Z,25.73
2022-10-04T16:03:40.169Z,25.65
2022-10-04T16:06:12.832Z,25.68
2022-10-04T16:09:05.026Z,25.62
2022-10-04T16:11:50.138Z,25.62
2022-10-04T16:14:43.282Z,25.61
2022-10-04T16:17:45.307Z,25.60
2022-10-04T16:20:48.815Z,25.58
2022-10-04T16:23:31.614Z,25.65
2022-10-04T16:26:00.766Z,25.64
2022-10-04T16:29:09.712Z,25.61
2022-10-04T16:31:51.232Z,25.69
2022-10-04T16:34:30.030Z,25.58
2022-10-04T16:37:12.469Z,25.56
2022-10-04T16:39:50.429Z,25.55
2022-10-04T16:42:23.016Z,25.60
2022-10-04T16:44:55.329Z,25.57
2022-10-04T16:47:28.192Z,25.54
2022-10-04T16:49:58.417Z,25.57
2022-10-04T16:52:44.218Z,25.58
2022-10-04T16:55:45.060Z,25.54
2022-10-04T16:58:55.830Z,25.59
2022-10-04T17:02:02.832Z,25.58
2022-10-04T17:05:04.189Z,25.59
2022-10-04T17:07:51.359Z,25.53
2022-10-04T17:10:32.026Z,25.54
2022-10-04T17:13:14.985Z,25.51
2022-10-04T17:16:04.349Z,25.57
2022-10-04T17:18:42.944Z,25.52
2022-10-04T17:21:23.839Z,25.56
2022-10-04T17:24:14.428Z,25.53
2022-10-04T17:27:03.231Z,25.51
2022-10-04T17:29:49.852Z,25.49
2022-10-04T17:32:25.182Z,25.49
2022-10-04T17:35:06.430Z,25.49
2022-10-04T17:37:44.193Z,25.24
2022-10-04T17:40:43.826Z,24.94
2022-10-04T17:43:21.535Z,24.82
2022-10-04T17:46:21.769Z,24.72
2022-10-04T17:48:55.781Z,24.60
2022-10-04T17:51:39.959Z,24.46
2022-10-04T17:54:14.263Z,24.32
2022-10-04T17:56:49.243Z,24.31
2022-10-04T17:59:20.908Z,24.29
2022-10-04T18:01:54.774Z,24.16
2022-10-04T18:04:25.132Z,24.10
2022-10-04T18:06:58.973Z,24.13
2022-10-04T18:09:32.983Z,24.16
2022-10-04T18:12:05.260Z,24.17
2022-10-04T18:14:58.896Z,24.24
2022-10-04T18:17:33.287Z,24.19
2022-10-04T18:20:22.474Z,24.14
2022-10-04T18:23:00.583Z,24.13
2022-10-04T18:25:31.191Z,24.13
2022-10-04T18:28:13.775Z,24.12
2022-10-04T18:30:56.902Z,24.06
2022-10-04T18:33:30.064Z,23.96
2022-10-04T18:36:04.403Z,23.89
2022-10-04T18:38:34.636Z,24.03
2022-10-04T18:41:12.161Z,24.03
2022-10-04T18:43:50.921Z,24.05
2022-10-04T18:46:20.854Z,24.00
2022-10-04T18:48:53.908Z,23.91
2022-10-04T18:51:26.272Z,23.87
2022-10-04T18:54:05.256Z,23.87
2022-10-04T18:56:40.881Z,23.84
2022-10-04T18:59:19.673Z,23.83
2022-10-04T19:01:57.642Z,23.78
2022-10-04T19:04:35.205Z,23.67
2022-10-04T19:07:10.552Z,23.72
2022-10-04T19:10:05.636Z,23.63
2022-10-04T19:12:43.581Z,23.61
2022-10-04T19:15:26.516Z,23.61
2022-10-04T19:18:03.387Z,23.61
2022-10-04T19:20:40.979Z,23.63
2022-10-04T19:23:24.459Z,23.70
2022-10-04T19:26:30.106Z,23.73
2022-10-04T19:28:50.342Z,23.68
2022-10-04T19:31:24.015Z,23.62
2022-10-04T19:33:59.102Z,23.61
2022-10-04T19:36:48.512Z,23.62
2022-10-04T19:39:34.951Z,23.52
2022-10-04T19:42:04.851Z,23.66
2022-10-04T19:45:01.639Z,23.61
2022-10-04T19:47:48.116Z,23.71
2022-10-04T19:50:19.588Z,23.63
2022-10-04T19:52:50.546Z,23.56
2022-10-04T19:55:22.983Z,23.50
2022-10-04T19:57:55.548Z,23.58
2022-10-04T20:00:23.040Z,23.39
2022-10-04T20:02:52.266Z,23.31
2022-10-04T20:05:21.881Z,23.17
2022-10-04T20:07:51.292Z,23.05
2022-10-04T20:10:32.946Z,23.09
2022-10-04T20:13:16.868Z,23.01
2022-10-04T20:15:47.208Z,23.06
2022-10-04T20:18:57.645Z,22.96
2022-10-04T20:21:27.767Z,22.96
2022-10-04T20:23:56.574Z,22.95
2022-10-04T20:26:39.388Z,22.99
2022-10-04T20:29:07.573Z,23.17
2022-10-04T20:31:59.141Z,23.35
2022-10-04T20:34:48.325Z,23.59
2022-10-04T20:37:16.221Z,23.68
2022-10-04T20:39:58.308Z,23.80
2022-10-04T20:42:36.575Z,23.88
2022-10-04T20:45:21.744Z,23.93
2022-10-04T20:47:51.570Z,23.95
2022-10-04T20:50:39.680Z,23.98
2022-10-04T20:53:15.719Z,24.00
2022-10-04T20:55:43.493Z,23.97
2022-10-04T20:58:28.748Z,23.99
2022-10-04T21:00:57.658Z,24.06
2022-10-04T21:03:25.140Z,24.07
2022-10-04T21:06:08.050Z,24.04
2022-10-04T21:08:36.598Z,24.07
2022-10-04T21:11:20.796Z,24.05
2022-10-04T21:13:53.621Z,24.05
2022-10-04T21:16:41.397Z,24.04
2022-10-04T21:19:42.900Z,24.05
2022-10-04T21:22:32.100Z,24.05
2022-10-04T21:25:00.753Z,24.06
2022-10-04T21:27:29.734Z,24.08
2022-10-04T21:29:57.690Z,24.10
2022-10-04T21:32:26.901Z,24.12
2022-10-04T21:34:54.919Z,24.10
2022-10-04T21:37:24.399Z,24.13
2022-10-04T21:39:51.795Z,24.11
2022-10-04T21:42:19.347Z,24.11
2022-10-04T21:44:46.705Z,24.14
2022-10-04T21:47:14.272Z,24.13
2022-10-04T21:49:42.195Z,24.12
2022-10-04T21:52:09.652Z,24.17
2022-10-04T21:54:38.550Z,24.11
2022-10-04T21:57:06.037Z,24.13
2022-10-04T21:59:33.412Z,24.12
2022-10-04T22:02:01.735Z,24.13
2022-10-04T22:04:29.138Z,24.14
2022-10-04T22:06:56.834Z,24.16
2022-10-04T22:09:24.414Z,24.14
2022-10-04T22:11:53.215Z,24.14
2022-10-04T22:14:20.697Z,24.11
2022-10-04T22:16:48.686Z,24.13
2022-10-04T22:19:16.472Z,24.11
2022-10-04T22:21:44.286Z,24.12
2022-10-04T22:24:17.705Z,24.14
2022-10-04T22:26:46.062Z,24.14
2022-10-04T22:29:16.936Z,24.13
2022-10-04T22:31:49.255Z,24.13
2022-10-04T22:34:18.526Z,24.13
2022-10-04T22:36:48.171Z,24.16
2022-10-04T22:39:18.178Z,24.10
2022-10-04T22:41:48.315Z,24.13
2022-10-04T22:44:19.896Z,24.13
2022-10-04T22:46:51.103Z,24.13
2022-10-04T22:49:22.228Z,24.09
2022-10-04T22:51:51.382Z,24.13
2022-10-04T22:54:20.650Z,24.14
2022-10-04T22:56:49.412Z,24.13
2022-10-04T22:59:20.066Z,24.13
2022-10-04T23:01:48.001Z,24.16
2022-10-04T23:04:20.985Z,24.18
2022-10-04T23:06:48.834Z,24.19
2022-10-04T23:09:16.427Z,24.17
2022-10-04T23:11:44.160Z,24.25
2022-10-04T23:14:12.147Z,24.24
2022-10-04T23:16:41.472Z,24.27
2022-10-04T23:19:12.082Z,24.26
2022-10-04T23:21:40.273Z,24.25
2022-10-04T23:24:15.397Z,24.23
2022-10-04T23:26:44.843Z,24.22
2022-10-04T23:29:16.681Z,24.18
2022-10-04T23:31:46.524Z,24.21
2022-10-04T23:34:18.285Z,24.22
2022-10-04T23:36:48.230Z,24.25
2022-10-04T23:39:23.156Z,24.27
2022-10-04T23:41:51.216Z,24.31
2022-10-04T23:44:18.778Z,24.32
2022-10-04T23:46:47.999Z,24.28
2022-10-04T23:49:16.731Z,24.24
2022-10-04T23:51:44.983Z,24.24
2022-10-04T23:54:14.855Z,24.25
2022-10-04T23:56:44.571Z,24.23
2022-10-04T23:59:15.906Z,24.28
